Terminal Aerodrome Forecast
Issued by NWS

Home | Current Version | Previous Version | Text Only | Print | Product List | Glossary On
Versions: 1 2 3 4 5 6 7 8 9 10 11 12 13 14 15 16 17 18 19 20
000
FTUS44 KEWX 282336
TAFSSF
TAF
KSSF 282336Z 2900/2924 07007KT P6SM FEW045
     FM291000 04004KT P6SM BKN015
     FM291600 04007KT P6SM BKN025
     FM291800 07010KT P6SM VCSH BKN035=

USA.gov is the U.S. government's official web portal to all federal, state and local government web resources and services.